Terminal Aerodrome Forecast
Issued by NWS

Home | Current Version | Previous Version | Text Only | Print | Product List | Glossary On
Versions: 1 2 3 4 5 6 7 8 9 10 11 12 13 14 15 16 17 18 19 20 21 22 23 24 25 26 27 28 29 30 31 32 33 34
000
FTUS46 KEKA 022339
TAFACV
TAF
KACV 022339Z 0300/0324 30007KT P6SM BKN010 OVC025
     FM030300 25007KT P6SM OVC008
     FM030600 15003KT 4SM -DZ BR SCT003 OVC008
     FM031900 29009KT P6SM BKN025=

USA.gov is the U.S. government's official web portal to all federal, state and local government web resources and services.